Airfield :
LOGIN :

Register | Disclaimer

   EN    FR    IT 

 










Legend :    VFR   Marginal VFR   IFR   Intensive IFR   Very Intensive IFR
Visi :
Ceiling :
>= 8 km
>= 3000ft
5 to 8 km
1000 to 3000 ft
1500m to 5 km
500 to 1000 ft
800 to 1500m
200 to 500 ft
< 800m
< 200 ft
Symbols :   Thunderstorms  Fog  Heavy snow  Heavy precipitations  Wind > 20 kt
SIGMETs :     Misc.  Thunderstorms  Icing  Turbulence  Mountain Waves  Volcanic Ashes







- Airport Elevation : 1416 ft
- IATA code : ZRH


LSZH - Zurich

CURRENT METAR :
  • 250820Z 25010KT 9999 FEW060 BKN280 18/09 Q1016 NOSIG

EXPIRED METARs :
  • 250750Z 24009KT 9999 FEW068 BKN280 18/09 Q1016 NOSIG
  • 250720Z 22006KT 9999 FEW069 BKN280 17/10 Q1016 NOSIG
  • 250650Z 21005KT 9999 FEW059 BKN280 16/10 Q1016 NOSIG
  • 250620Z 15003KT 9999 FEW060 SCT280 14/11 Q1016 NOSIG
  • 250550Z 00000KT 9999 SCT060 SCT280 13/10 Q1016 NOSIG

TAF TAF LSZH
Valid from the 25 at 09:00 until the 26 at 15:00 UTC


250825Z 2509/2615 26010KT 9999 FEW065 BKN280 TX24/2514Z TN10/2604Z TX16/2614Z
TEMPO 2510/2518 30015G28KT
BECMG 2522/2601 26005KT
PROB40
TEMPO 2600/2606 SHRA BKN030
BECMG 2610/2612 30008KT
ATIS : +41 43 816 2295 (DEP) +41 43 816 2294 (ARR)
No reported NOTAMs for that airfield.



MET'MAP, your aeronautical weather chart ! - Copyright ORBIFLY December 2007 - Disclaimer

ORBIFLY MET'MAP TEAM :

Programming & Development : Alexandra Zaïnal
Concept & Development : Baudouin d'Aumeries
Co-Development & Prog : Marc-Olivier Méhu
Technical & hardware support : Manuel Goepfert

Contact : metmap@orbifly.com




SOURCES & CREDITS :

   NOAA